MSC Vienna — A8CI9 — position and weather

sailwx.info

Track history (hours):
 
Tides and Currents Weather Stations Pressure Air Temp Water Temp Dewpoint Dewpoint Depression Visibility Wind Speed Wind Dir Waves Ship Positions

MSC Vienna

Last reported at 2017-Jul-24 22:13 UTC. Time now 2017-Jul-28 08:36 UTC.
Position N 37°38' E 023°46'.

Length 260.1 m; beam 32.2 m; draft 12 m.

Type: Ship (hazmat cat A). MMSI: 636090654.

Date/timePositionNaut miles runAvg speedWind from/ knotsBaromVisibWave heightAir tempDewpointWater temp
2017-Jul-24 22:13N 37°38' E 023°46'418.9
2017-Jul-24 22:01N 37°41' E 023°42'918.7
2017-Jul-24 21:31N 37°49' E 023°37'714.5
2017-Jul-24 21:00N 37°56' E 023°36'1 2.3
2017-Jul-24 20:27N 37°57' E 023°35'0 0.0
2017-Jul-24 19:57N 37°57' E 023°35'0 0.0
2017-Jul-24 19:27N 37°57' E 023°35'0 0.0
2017-Jul-24 18:57N 37°57' E 023°35'0 0.0
2017-Jul-24 18:27N 37°57' E 023°35'0 0.0
2017-Jul-24 17:57N 37°57' E 023°35'0 0.0
2017-Jul-24 17:27N 37°57' E 023°35'0 0.0
2017-Jul-24 16:57N 37°57' E 023°35'0 0.0
2017-Jul-24 16:27N 37°57' E 023°35'0 0.0
2017-Jul-24 15:57N 37°57' E 023°35'0 0.0
2017-Jul-24 12:51N 37°57' E 023°35'0 0.0
2017-Jul-24 12:27N 37°57' E 023°35'0 0.0
2017-Jul-24 11:57N 37°57' E 023°35'0 0.0
2017-Jul-24 11:27N 37°57' E 023°35'0 0.0
2017-Jul-24 10:57N 37°57' E 023°35'0 0.0
2017-Jul-24 10:27N 37°57' E 023°35'0 0.0
2017-Jul-24 09:57N 37°57' E 023°35'0 0.0
2017-Jul-24 09:27N 37°57' E 023°35'0 0.0
2017-Jul-24 08:57N 37°57' E 023°35'0 0.0
2017-Jul-24 08:27N 37°57' E 023°35'0 0.0
2017-Jul-24 07:57N 37°57' E 023°35'0 0.0
2017-Jul-24 07:27N 37°57' E 023°35'0 0.0
2017-Jul-24 06:51N 37°57' E 023°35'0 0.0
2017-Jul-24 06:27N 37°57' E 023°35'0 0.0
2017-Jul-24 05:57N 37°57' E 023°35'0 0.0
2017-Jul-24 05:27N 37°57' E 023°35'0 0.0
2017-Jul-24 04:57N 37°57' E 023°35'0 0.0
2017-Jul-24 04:27N 37°57' E 023°35'1 3.3
2017-Jul-24 04:00N 37°56' E 023°35'2 3.8
2017-Jul-24 03:30N 37°54' E 023°35'3 6.8
2017-Jul-24 03:00N 37°52' E 023°38'611.2
2017-Jul-24 02:30N 37°47' E 023°41'4 7.5
2017-Jul-24 02:00N 37°44' E 023°43'4 7.6
2017-Jul-24 01:30N 37°40' E 023°46'510.8
2017-Jul-24 01:00N 37°35' E 023°48'815.5
2017-Jul-24 00:30N 37°27' E 023°50'37614.0
2017-Jul-22 21:40N 36°24' E 016°06'317.3
2017-Jul-22 21:29N 36°24' E 016°02'917.2
2017-Jul-22 20:59N 36°25' E 015°52'2117.3
2017-Jul-22 19:47N 36°26' E 015°26'517.7
2017-Jul-22 19:30N 36°26' E 015°19'917.6
2017-Jul-22 19:00N 36°27' E 015°09'918.1
2017-Jul-22 18:30N 36°28' E 014°57'918.1
2017-Jul-22 18:00N 36°28' E 014°46'917.3
2017-Jul-22 17:30N 36°30' E 014°36'917.8
2017-Jul-22 17:00N 36°34' E 014°26'918.4
2017-Jul-22 16:30N 36°38' E 014°16'918.5
2017-Jul-22 16:00N 36°42' E 014°05'917.9
2017-Jul-22 15:30N 36°46' E 013°55'917.8
2017-Jul-22 15:00N 36°50' E 013°45'1817.7
2017-Jul-22 14:00N 36°58' E 013°26'917.7
2017-Jul-22 13:30N 37°02' E 013°16'917.5
2017-Jul-22 12:59N 37°06' E 013°06'817.1
2017-Jul-22 12:30N 37°10' E 012°56'917.0
2017-Jul-22 11:58N 37°15' E 012°47'816.8
2017-Jul-22 11:30N 37°19' E 012°39'816.9
2017-Jul-22 10:59N 37°24' E 012°30'917.5
2017-Jul-22 10:30N 37°29' E 012°20'917.5
2017-Jul-22 10:00N 37°33' E 012°11'917.2
2017-Jul-22 09:30N 37°38' E 012°02'817.0
2017-Jul-22 09:00N 37°43' E 011°53'917.1
2017-Jul-22 08:30N 37°47' E 011°44'816.8
2017-Jul-22 08:00N 37°52' E 011°35'715.1
2017-Jul-22 07:30N 37°56' E 011°27'815.4
2017-Jul-22 07:00N 38°00' E 011°19'815.5
2017-Jul-22 06:30N 38°04' E 011°11'815.4
2017-Jul-22 06:00N 38°09' E 011°03'3015.5
2017-Jul-22 04:05N 38°25' E 010°31'115.4
2017-Jul-22 04:00N 38°26' E 010°30'1615.6
2017-Jul-22 02:57N 38°35' E 010°12'815.4
2017-Jul-22 02:26N 38°39' E 010°04'715.2
2017-Jul-22 02:00N 38°43' E 009°57'815.4
2017-Jul-22 01:29N 38°47' E 009°48'815.5
2017-Jul-22 01:00N 38°51' E 009°40'1215.7
2017-Jul-22 00:14N 38°58' E 009°27'415.9
2017-Jul-21 23:59N 38°60' E 009°23'815.9
2017-Jul-21 23:30N 39°04' E 009°15'815.3
2017-Jul-21 23:00N 39°08' E 009°07'5 9.1
2017-Jul-21 22:29N 39°13' E 009°04'0 0.5
2017-Jul-21 22:00N 39°13' E 009°04'0 0.0
2017-Jul-21 21:30N 39°13' E 009°04'0 0.0
2017-Jul-21 21:00N 39°13' E 009°04'0 0.0
2017-Jul-21 20:30N 39°13' E 009°04'0 0.0
2017-Jul-21 20:00N 39°13' E 009°04'0 0.0
2017-Jul-21 19:30N 39°13' E 009°04'0 0.0
2017-Jul-21 19:00N 39°13' E 009°04'0 0.0
2017-Jul-21 18:30N 39°13' E 009°04'0 0.0
2017-Jul-21 18:00N 39°13' E 009°04'0 0.0
2017-Jul-21 17:30N 39°13' E 009°04'0 0.0
2017-Jul-21 17:00N 39°13' E 009°04'0 0.0
2017-Jul-21 16:30N 39°13' E 009°04'0 0.0
2017-Jul-21 16:00N 39°13' E 009°04'0 0.0
2017-Jul-21 15:30N 39°13' E 009°04'0 0.0
2017-Jul-21 15:00N 39°13' E 009°04'0 0.0
2017-Jul-21 14:30N 39°13' E 009°04'0 0.0
2017-Jul-21 14:00N 39°13' E 009°04'0 0.0
2017-Jul-21 13:30N 39°13' E 009°04'0 0.0
2017-Jul-21 13:00N 39°13' E 009°04'0 0.0
2017-Jul-21 12:30N 39°13' E 009°04'0 0.0
2017-Jul-21 12:00N 39°13' E 009°04'0 0.0
2017-Jul-21 11:30N 39°13' E 009°04'0 0.0
2017-Jul-21 11:00N 39°13' E 009°04'0 0.7
2017-Jul-21 10:30N 39°13' E 009°04'3 5.2
2017-Jul-21 10:00N 39°11' E 009°06'611.8
2017-Jul-21 09:30N 39°05' E 009°08'917.8
2017-Jul-21 09:00N 38°57' E 009°07'43916.7
2017-Jul-20 06:45N 36°52' E 000°14'518.0
2017-Jul-20 06:30N 36°51' E 000°08'918.1
2017-Jul-20 06:00N 36°49' W 000°03'2218.2
2017-Jul-20 04:48N 36°43' W 000°29'518.4
2017-Jul-20 04:30N 36°42' W 000°36'1218.1
2017-Jul-20 03:50N 36°39' W 000°50'39917.7
2017-Jul-19 05:19N 36°32' W 009°07'10317.5
2017-Jul-18 23:25N 38°07' W 009°56'1018.6
2017-Jul-18 22:55N 38°17' W 009°59'1918.5
2017-Jul-18 21:52N 38°35' W 010°04'617.9
2017-Jul-18 21:30N 38°42' W 010°06'917.6
2017-Jul-18 21:00N 38°50' W 010°07'918.1
2017-Jul-18 20:30N 38°60' W 010°06'917.6
2017-Jul-18 20:00N 39°08' W 010°06'1218.3
2017-Jul-18 19:22N 39°20' W 010°05'33817.5
2017-Jul-18 00:00N 44°54' W 008°54'10818.1 050 / 141014.1 5.4 19.117.619.1
2017-Jul-17 18:00N 46°30' W 007°42'14423.9 050 / 171017.0 5.4 20.013.519.0
2017-Jul-17 12:00N 48°36' W 006°00'6711.2 040 / 151022.1 5.4 21.118.118.1
2017-Jul-17 06:02N 49°19' W 004°42'218.1
2017-Jul-17 05:56N 49°20' W 004°40'818.3
2017-Jul-17 05:30N 49°24' W 004°30'1018.5
2017-Jul-17 04:57N 49°29' W 004°16'918.5
2017-Jul-17 04:27N 49°34' W 004°04'818.5
2017-Jul-17 04:00N 49°39' W 003°53'918.4
2017-Jul-17 03:30N 49°44' W 003°41'918.0
2017-Jul-17 03:00N 49°48' W 003°29'917.5
2017-Jul-17 02:30N 49°52' W 003°17'917.0
2017-Jul-17 02:00N 49°56' W 003°05'816.5
2017-Jul-17 01:30N 49°60' W 002°54'916.1
2017-Jul-17 00:58N 50°02' W 002°40'715.8
2017-Jul-17 00:29N 50°04' W 002°29'1530.2
2017-Jul-17 00:00N 50°06' W 002°06'71750.8 320 / 81023.1 5.4 17.115.516.1
2017-Jul-16 23:59N 50°06' W 002°17'3216.3
2017-Jul-16 22:00N 50°14' W 001°28'4018.9
2017-Jul-16 19:53N 50°25' W 000°28'719.0
2017-Jul-16 19:30N 50°27' W 000°17'918.7
2017-Jul-16 19:00N 50°29' W 000°03'918.5
2017-Jul-16 18:31N 50°31' E 000°11'4817.4
2017-Jul-16 15:45N 50°55' E 001°17'416.7
2017-Jul-16 15:29N 50°58' E 001°22'817.3
2017-Jul-16 15:00N 51°04' E 001°31'917.9
2017-Jul-16 14:30N 51°10' E 001°41'918.7
2017-Jul-16 14:00N 51°17' E 001°51'919.0
2017-Jul-16 13:30N 51°25' E 002°01'917.7
2017-Jul-16 13:00N 51°21' E 002°14'918.1
2017-Jul-16 12:30N 51°23' E 002°28'918.5
2017-Jul-16 12:00N 51°22' E 002°43'816.7
2017-Jul-16 11:30N 51°23' E 002°56'919.1
2017-Jul-16 11:00N 51°24' E 003°11'1020.3
2017-Jul-16 10:30N 51°25' E 003°27'613.0
2017-Jul-16 10:00N 51°26' E 003°38'4 7.4
2017-Jul-16 09:30N 51°24' E 003°43'5 9.9
2017-Jul-16 09:00N 51°21' E 003°48'714.6
2017-Jul-16 08:30N 51°25' E 003°58'713.5
2017-Jul-16 08:00N 51°22' E 004°08'611.5
2017-Jul-16 07:30N 51°20' E 004°16'3 2.2
2017-Jul-16 06:06N 51°17' E 004°16'0 0.0
2017-Jul-16 05:54N 51°17' E 004°16'0 0.0
2017-Jul-16 05:09N 51°17' E 004°16'0 0.0
2017-Jul-16 04:48N 51°17' E 004°16'0 0.0
2017-Jul-16 04:27N 51°17' E 004°16'0 0.0
2017-Jul-16 03:45N 51°17' E 004°16'0 0.0
2017-Jul-16 03:24N 51°17' E 004°16'0 0.0
2017-Jul-16 02:51N 51°17' E 004°16'0 0.0
2017-Jul-16 02:21N 51°17' E 004°16'0 0.0
2017-Jul-16 01:51N 51°17' E 004°16'0 0.0
2017-Jul-16 01:30N 51°17' E 004°16'0 0.0
2017-Jul-16 00:54N 51°17' E 004°16'0 0.0
2017-Jul-16 00:30N 51°17' E 004°16'0 0.0
2017-Jul-16 00:00N 51°17' E 004°16'0 0.0
2017-Jul-15 23:30N 51°17' E 004°16'0 0.0
2017-Jul-15 22:57N 51°17' E 004°16'0 0.0
2017-Jul-15 22:18N 51°17' E 004°16'0 0.0
2017-Jul-15 21:57N 51°17' E 004°16'0 0.0
2017-Jul-15 21:30N 51°17' E 004°16'0 0.0
2017-Jul-15 21:00N 51°17' E 004°16'0 0.0
2017-Jul-15 20:30N 51°17' E 004°16'0 0.0
2017-Jul-15 20:00N 51°17' E 004°16'0 0.0
2017-Jul-15 19:30N 51°17' E 004°16'0 0.0
2017-Jul-15 18:36N 51°17' E 004°16'0 0.0
2017-Jul-15 18:30N 51°17' E 004°16'0 0.0
2017-Jul-15 16:48N 51°17' E 004°16'0 0.0
2017-Jul-15 16:30N 51°17' E 004°16'0 0.0
2017-Jul-15 15:33N 51°17' E 004°16'0 0.0
2017-Jul-15 15:24N 51°17' E 004°16'0 0.0
2017-Jul-15 15:00N 51°17' E 004°16'0 0.0
2017-Jul-15 13:54N 51°17' E 004°16'0 0.0
2017-Jul-15 13:24N 51°17' E 004°16'0 0.0
2017-Jul-15 13:00N 51°17' E 004°16'0 0.0
2017-Jul-15 12:30N 51°17' E 004°16'0 0.1
2017-Jul-15 11:47N 51°17' E 004°16'1 2.5
2017-Jul-15 11:30N 51°18' E 004°16'2 3.8
2017-Jul-15 11:00N 51°20' E 004°16'510.2
2017-Jul-15 10:30N 51°24' E 004°11'611.8
2017-Jul-15 10:00N 51°25' E 004°02'612.7
2017-Jul-15 09:30N 51°21' E 003°53'714.7
2017-Jul-15 09:00N 51°24' E 003°42'611.4
2017-Jul-15 08:30N 51°26' E 003°34'815.1
2017-Jul-15 08:00N 51°24' E 003°22'1019.4
2017-Jul-15 07:30N 51°24' E 003°06'611.3
2017-Jul-15 07:00N 51°28' E 003°01'918.7
2017-Jul-15 06:30N 51°36' E 003°10'14 5.2
2017-Jul-15 03:48N 51°49' E 003°19'0 0.0
2017-Jul-15 03:30N 51°49' E 003°19'0 0.0
2017-Jul-15 03:00N 51°49' E 003°19'0 0.0
2017-Jul-15 02:30N 51°49' E 003°19'0 0.0
2017-Jul-15 02:00N 51°49' E 003°19'0 0.0
2017-Jul-15 01:30N 51°49' E 003°19'0 0.0
2017-Jul-15 01:00N 51°49' E 003°19'0 0.0
2017-Jul-15 00:30N 51°49' E 003°19'0 0.0
2017-Jul-15 00:00N 51°49' E 003°19'0 0.0
2017-Jul-14 23:30N 51°49' E 003°19'  
Track history (hours):
 
Tides and Currents Weather Stations Pressure Air Temp Water Temp Dewpoint Dewpoint Depression Visibility Wind Speed Wind Dir Waves Ship Positions

MSC Vienna

Last reported at 2017-Jul-24 22:13 UTC. Time now 2017-Jul-28 08:36 UTC.
Position N 37°38' E 023°46'.

Length 260.1 m; beam 32.2 m; draft 12 m.

Type: Ship (hazmat cat A). MMSI: 636090654.

Date/timePositionNaut miles runAvg speedWind from/ knotsBaromVisibWave heightAir tempDewpointWater temp
2017-Jul-24 22:13N 37°38' E 023°46'418.9
2017-Jul-24 22:01N 37°41' E 023°42'918.7
2017-Jul-24 21:31N 37°49' E 023°37'714.5
2017-Jul-24 21:00N 37°56' E 023°36'1 2.3
2017-Jul-24 20:27N 37°57' E 023°35'0 0.0
2017-Jul-24 19:57N 37°57' E 023°35'0 0.0
2017-Jul-24 19:27N 37°57' E 023°35'0 0.0
2017-Jul-24 18:57N 37°57' E 023°35'0 0.0
2017-Jul-24 18:27N 37°57' E 023°35'0 0.0
2017-Jul-24 17:57N 37°57' E 023°35'0 0.0
2017-Jul-24 17:27N 37°57' E 023°35'0 0.0
2017-Jul-24 16:57N 37°57' E 023°35'0 0.0
2017-Jul-24 16:27N 37°57' E 023°35'0 0.0
2017-Jul-24 15:57N 37°57' E 023°35'0 0.0
2017-Jul-24 12:51N 37°57' E 023°35'0 0.0
2017-Jul-24 12:27N 37°57' E 023°35'0 0.0
2017-Jul-24 11:57N 37°57' E 023°35'0 0.0
2017-Jul-24 11:27N 37°57' E 023°35'0 0.0
2017-Jul-24 10:57N 37°57' E 023°35'0 0.0
2017-Jul-24 10:27N 37°57' E 023°35'0 0.0
2017-Jul-24 09:57N 37°57' E 023°35'0 0.0
2017-Jul-24 09:27N 37°57' E 023°35'0 0.0
2017-Jul-24 08:57N 37°57' E 023°35'0 0.0
2017-Jul-24 08:27N 37°57' E 023°35'0 0.0
2017-Jul-24 07:57N 37°57' E 023°35'0 0.0
2017-Jul-24 07:27N 37°57' E 023°35'0 0.0
2017-Jul-24 06:51N 37°57' E 023°35'0 0.0
2017-Jul-24 06:27N 37°57' E 023°35'0 0.0
2017-Jul-24 05:57N 37°57' E 023°35'0 0.0
2017-Jul-24 05:27N 37°57' E 023°35'0 0.0
2017-Jul-24 04:57N 37°57' E 023°35'0 0.0
2017-Jul-24 04:27N 37°57' E 023°35'1 3.3
2017-Jul-24 04:00N 37°56' E 023°35'2 3.8
2017-Jul-24 03:30N 37°54' E 023°35'3 6.8
2017-Jul-24 03:00N 37°52' E 023°38'611.2
2017-Jul-24 02:30N 37°47' E 023°41'4 7.5
2017-Jul-24 02:00N 37°44' E 023°43'4 7.6
2017-Jul-24 01:30N 37°40' E 023°46'510.8
2017-Jul-24 01:00N 37°35' E 023°48'815.5
2017-Jul-24 00:30N 37°27' E 023°50'37614.0
2017-Jul-22 21:40N 36°24' E 016°06'317.3
2017-Jul-22 21:29N 36°24' E 016°02'917.2
2017-Jul-22 20:59N 36°25' E 015°52'2117.3
2017-Jul-22 19:47N 36°26' E 015°26'517.7
2017-Jul-22 19:30N 36°26' E 015°19'917.6
2017-Jul-22 19:00N 36°27' E 015°09'918.1
2017-Jul-22 18:30N 36°28' E 014°57'918.1
2017-Jul-22 18:00N 36°28' E 014°46'917.3
2017-Jul-22 17:30N 36°30' E 014°36'917.8
2017-Jul-22 17:00N 36°34' E 014°26'918.4
2017-Jul-22 16:30N 36°38' E 014°16'918.5
2017-Jul-22 16:00N 36°42' E 014°05'917.9
2017-Jul-22 15:30N 36°46' E 013°55'917.8
2017-Jul-22 15:00N 36°50' E 013°45'1817.7
2017-Jul-22 14:00N 36°58' E 013°26'917.7
2017-Jul-22 13:30N 37°02' E 013°16'917.5
2017-Jul-22 12:59N 37°06' E 013°06'817.1
2017-Jul-22 12:30N 37°10' E 012°56'917.0
2017-Jul-22 11:58N 37°15' E 012°47'816.8
2017-Jul-22 11:30N 37°19' E 012°39'816.9
2017-Jul-22 10:59N 37°24' E 012°30'917.5
2017-Jul-22 10:30N 37°29' E 012°20'917.5
2017-Jul-22 10:00N 37°33' E 012°11'917.2
2017-Jul-22 09:30N 37°38' E 012°02'817.0
2017-Jul-22 09:00N 37°43' E 011°53'917.1
2017-Jul-22 08:30N 37°47' E 011°44'816.8
2017-Jul-22 08:00N 37°52' E 011°35'715.1
2017-Jul-22 07:30N 37°56' E 011°27'815.4
2017-Jul-22 07:00N 38°00' E 011°19'815.5
2017-Jul-22 06:30N 38°04' E 011°11'815.4
2017-Jul-22 06:00N 38°09' E 011°03'3015.5
2017-Jul-22 04:05N 38°25' E 010°31'115.4
2017-Jul-22 04:00N 38°26' E 010°30'1615.6
2017-Jul-22 02:57N 38°35' E 010°12'815.4
2017-Jul-22 02:26N 38°39' E 010°04'715.2
2017-Jul-22 02:00N 38°43' E 009°57'815.4
2017-Jul-22 01:29N 38°47' E 009°48'815.5
2017-Jul-22 01:00N 38°51' E 009°40'1215.7
2017-Jul-22 00:14N 38°58' E 009°27'415.9
2017-Jul-21 23:59N 38°60' E 009°23'815.9
2017-Jul-21 23:30N 39°04' E 009°15'815.3
2017-Jul-21 23:00N 39°08' E 009°07'5 9.1
2017-Jul-21 22:29N 39°13' E 009°04'0 0.5
2017-Jul-21 22:00N 39°13' E 009°04'0 0.0
2017-Jul-21 21:30N 39°13' E 009°04'0 0.0
2017-Jul-21 21:00N 39°13' E 009°04'0 0.0
2017-Jul-21 20:30N 39°13' E 009°04'0 0.0
2017-Jul-21 20:00N 39°13' E 009°04'0 0.0
2017-Jul-21 19:30N 39°13' E 009°04'0 0.0
2017-Jul-21 19:00N 39°13' E 009°04'0 0.0
2017-Jul-21 18:30N 39°13' E 009°04'0 0.0
2017-Jul-21 18:00N 39°13' E 009°04'0 0.0
2017-Jul-21 17:30N 39°13' E 009°04'0 0.0
2017-Jul-21 17:00N 39°13' E 009°04'0 0.0
2017-Jul-21 16:30N 39°13' E 009°04'0 0.0
2017-Jul-21 16:00N 39°13' E 009°04'0 0.0
2017-Jul-21 15:30N 39°13' E 009°04'0 0.0
2017-Jul-21 15:00N 39°13' E 009°04'0 0.0
2017-Jul-21 14:30N 39°13' E 009°04'0 0.0
2017-Jul-21 14:00N 39°13' E 009°04'0 0.0
2017-Jul-21 13:30N 39°13' E 009°04'0 0.0
2017-Jul-21 13:00N 39°13' E 009°04'0 0.0
2017-Jul-21 12:30N 39°13' E 009°04'0 0.0
2017-Jul-21 12:00N 39°13' E 009°04'0 0.0
2017-Jul-21 11:30N 39°13' E 009°04'0 0.0
2017-Jul-21 11:00N 39°13' E 009°04'0 0.7
2017-Jul-21 10:30N 39°13' E 009°04'3 5.2
2017-Jul-21 10:00N 39°11' E 009°06'611.8
2017-Jul-21 09:30N 39°05' E 009°08'917.8
2017-Jul-21 09:00N 38°57' E 009°07'43916.7
2017-Jul-20 06:45N 36°52' E 000°14'518.0
2017-Jul-20 06:30N 36°51' E 000°08'918.1
2017-Jul-20 06:00N 36°49' W 000°03'2218.2
2017-Jul-20 04:48N 36°43' W 000°29'518.4
2017-Jul-20 04:30N 36°42' W 000°36'1218.1
2017-Jul-20 03:50N 36°39' W 000°50'39917.7
2017-Jul-19 05:19N 36°32' W 009°07'10317.5
2017-Jul-18 23:25N 38°07' W 009°56'1018.6
2017-Jul-18 22:55N 38°17' W 009°59'1918.5
2017-Jul-18 21:52N 38°35' W 010°04'617.9
2017-Jul-18 21:30N 38°42' W 010°06'917.6
2017-Jul-18 21:00N 38°50' W 010°07'918.1
2017-Jul-18 20:30N 38°60' W 010°06'917.6
2017-Jul-18 20:00N 39°08' W 010°06'1218.3
2017-Jul-18 19:22N 39°20' W 010°05'33817.5
2017-Jul-18 00:00N 44°54' W 008°54'10818.1 050 / 141014.1 5.4 19.117.619.1
2017-Jul-17 18:00N 46°30' W 007°42'14423.9 050 / 171017.0 5.4 20.013.519.0
2017-Jul-17 12:00N 48°36' W 006°00'6711.2 040 / 151022.1 5.4 21.118.118.1
2017-Jul-17 06:02N 49°19' W 004°42'218.1
2017-Jul-17 05:56N 49°20' W 004°40'818.3
2017-Jul-17 05:30N 49°24' W 004°30'1018.5
2017-Jul-17 04:57N 49°29' W 004°16'918.5
2017-Jul-17 04:27N 49°34' W 004°04'818.5
2017-Jul-17 04:00N 49°39' W 003°53'918.4
2017-Jul-17 03:30N 49°44' W 003°41'918.0
2017-Jul-17 03:00N 49°48' W 003°29'917.5
2017-Jul-17 02:30N 49°52' W 003°17'917.0
2017-Jul-17 02:00N 49°56' W 003°05'816.5
2017-Jul-17 01:30N 49°60' W 002°54'916.1
2017-Jul-17 00:58N 50°02' W 002°40'715.8
2017-Jul-17 00:29N 50°04' W 002°29'1530.2
2017-Jul-17 00:00N 50°06' W 002°06'71750.8 320 / 81023.1 5.4 17.115.516.1
2017-Jul-16 23:59N 50°06' W 002°17'3216.3
2017-Jul-16 22:00N 50°14' W 001°28'4018.9
2017-Jul-16 19:53N 50°25' W 000°28'719.0
2017-Jul-16 19:30N 50°27' W 000°17'918.7
2017-Jul-16 19:00N 50°29' W 000°03'918.5
2017-Jul-16 18:31N 50°31' E 000°11'4817.4
2017-Jul-16 15:45N 50°55' E 001°17'416.7
2017-Jul-16 15:29N 50°58' E 001°22'817.3
2017-Jul-16 15:00N 51°04' E 001°31'917.9
2017-Jul-16 14:30N 51°10' E 001°41'918.7
2017-Jul-16 14:00N 51°17' E 001°51'919.0
2017-Jul-16 13:30N 51°25' E 002°01'917.7
2017-Jul-16 13:00N 51°21' E 002°14'918.1
2017-Jul-16 12:30N 51°23' E 002°28'918.5
2017-Jul-16 12:00N 51°22' E 002°43'816.7
2017-Jul-16 11:30N 51°23' E 002°56'919.1
2017-Jul-16 11:00N 51°24' E 003°11'1020.3
2017-Jul-16 10:30N 51°25' E 003°27'613.0
2017-Jul-16 10:00N 51°26' E 003°38'4 7.4
2017-Jul-16 09:30N 51°24' E 003°43'5 9.9
2017-Jul-16 09:00N 51°21' E 003°48'714.6
2017-Jul-16 08:30N 51°25' E 003°58'713.5
2017-Jul-16 08:00N 51°22' E 004°08'611.5
2017-Jul-16 07:30N 51°20' E 004°16'3 2.2
2017-Jul-16 06:06N 51°17' E 004°16'0 0.0
2017-Jul-16 05:54N 51°17' E 004°16'0 0.0
2017-Jul-16 05:09N 51°17' E 004°16'0 0.0
2017-Jul-16 04:48N 51°17' E 004°16'0 0.0
2017-Jul-16 04:27N 51°17' E 004°16'0 0.0
2017-Jul-16 03:45N 51°17' E 004°16'0 0.0
2017-Jul-16 03:24N 51°17' E 004°16'0 0.0
2017-Jul-16 02:51N 51°17' E 004°16'0 0.0
2017-Jul-16 02:21N 51°17' E 004°16'0 0.0
2017-Jul-16 01:51N 51°17' E 004°16'0 0.0
2017-Jul-16 01:30N 51°17' E 004°16'0 0.0
2017-Jul-16 00:54N 51°17' E 004°16'0 0.0
2017-Jul-16 00:30N 51°17' E 004°16'0 0.0
2017-Jul-16 00:00N 51°17' E 004°16'0 0.0
2017-Jul-15 23:30N 51°17' E 004°16'0 0.0
2017-Jul-15 22:57N 51°17' E 004°16'0 0.0
2017-Jul-15 22:18N 51°17' E 004°16'0 0.0
2017-Jul-15 21:57N 51°17' E 004°16'0 0.0
2017-Jul-15 21:30N 51°17' E 004°16'0 0.0
2017-Jul-15 21:00N 51°17' E 004°16'0 0.0
2017-Jul-15 20:30N 51°17' E 004°16'0 0.0
2017-Jul-15 20:00N 51°17' E 004°16'0 0.0
2017-Jul-15 19:30N 51°17' E 004°16'0 0.0
2017-Jul-15 18:36N 51°17' E 004°16'0 0.0
2017-Jul-15 18:30N 51°17' E 004°16'0 0.0
2017-Jul-15 16:48N 51°17' E 004°16'0 0.0
2017-Jul-15 16:30N 51°17' E 004°16'0 0.0
2017-Jul-15 15:33N 51°17' E 004°16'0 0.0
2017-Jul-15 15:24N 51°17' E 004°16'0 0.0
2017-Jul-15 15:00N 51°17' E 004°16'0 0.0
2017-Jul-15 13:54N 51°17' E 004°16'0 0.0
2017-Jul-15 13:24N 51°17' E 004°16'0 0.0
2017-Jul-15 13:00N 51°17' E 004°16'0 0.0
2017-Jul-15 12:30N 51°17' E 004°16'0 0.1
2017-Jul-15 11:47N 51°17' E 004°16'1 2.5
2017-Jul-15 11:30N 51°18' E 004°16'2 3.8
2017-Jul-15 11:00N 51°20' E 004°16'510.2
2017-Jul-15 10:30N 51°24' E 004°11'611.8
2017-Jul-15 10:00N 51°25' E 004°02'612.7
2017-Jul-15 09:30N 51°21' E 003°53'714.7
2017-Jul-15 09:00N 51°24' E 003°42'611.4
2017-Jul-15 08:30N 51°26' E 003°34'815.1
2017-Jul-15 08:00N 51°24' E 003°22'1019.4
2017-Jul-15 07:30N 51°24' E 003°06'611.3
2017-Jul-15 07:00N 51°28' E 003°01'918.7
2017-Jul-15 06:30N 51°36' E 003°10'14 5.2
2017-Jul-15 03:48N 51°49' E 003°19'0 0.0
2017-Jul-15 03:30N 51°49' E 003°19'0 0.0
2017-Jul-15 03:00N 51°49' E 003°19'0 0.0
2017-Jul-15 02:30N 51°49' E 003°19'0 0.0
2017-Jul-15 02:00N 51°49' E 003°19'0 0.0
2017-Jul-15 01:30N 51°49' E 003°19'0 0.0
2017-Jul-15 01:00N 51°49' E 003°19'0 0.0
2017-Jul-15 00:30N 51°49' E 003°19'0 0.0
2017-Jul-15 00:00N 51°49' E 003°19'0 0.0
2017-Jul-14 23:30N 51°49' E 003°19'  

Dump ship's entire track history